Time;durP1;ratioP1;P1;durP2;ratioP2;P2;SDS_P1;SDS_P2;PMS_P1;PMS_P2;Temp;Humidity;BMP_temperature;BMP_pressure;BME280_temperature;BME280_humidity;BME280_pressure;Samples;Min_cycle;Max_cycle;Signal;HPM_P1;HPM_P2
2021/12/19 00:00:30;;;;;;;5.50;2.70;;;;;;;17.42;61.19;103792.94;4775224;29;20031;-82
2021/12/19 00:10:56;;;;;;;4.05;2.20;;;;;;;17.41;60.79;103785.06;4796062;29;19967;-82
2021/12/19 00:13:27;;;;;;;3.63;2.20;;;;;;;17.41;60.89;103783.31;4778853;29;20452;-82
2021/12/19 00:15:54;;;;;;;3.53;2.20;;;;;;;17.42;60.90;103781.59;4793607;29;20080;-80
2021/12/19 00:18:19;;;;;;;3.58;2.00;;;;;;;17.41;60.79;103782.44;4793392;29;20034;-81
2021/12/19 00:20:45;;;;;;;3.30;1.60;;;;;;;17.39;60.69;103771.97;4793505;29;20043;-83
2021/12/19 00:23:11;;;;;;;2.75;1.98;;;;;;;17.40;60.84;103776.38;4793416;29;20558;-83
2021/12/19 00:25:36;;;;;;;4.90;2.17;;;;;;;17.41;60.65;103774.63;4793125;29;20104;-81
2021/12/19 00:28:02;;;;;;;3.75;2.10;;;;;;;17.39;61.10;103764.16;4793323;29;20038;-81
2021/12/19 00:30:28;;;;;;;2.88;1.73;;;;;;;17.39;60.81;103774.56;4778436;29;20034;-82
2021/12/19 00:32:53;;;;;;;3.38;2.00;;;;;;;17.39;60.81;103764.16;4778542;29;20508;-80
2021/12/19 00:35:19;;;;;;;2.80;2.00;;;;;;;17.41;60.89;103770.31;4780152;29;20133;-81
2021/12/19 00:37:44;;;;;;;4.28;2.13;;;;;;;17.40;60.70;103759.88;4780667;29;20131;-81
2021/12/19 00:40:10;;;;;;;2.28;1.75;;;;;;;17.40;60.73;103752.94;4795478;29;20038;-81
2021/12/19 00:42:37;;;;;;;3.08;2.00;;;;;;;17.40;60.97;103749.44;4779969;29;20039;-83
2021/12/19 00:48:08;;;;;;;2.72;1.77;;;;;;;17.40;60.64;103745.13;4771129;29;20046;-82
2021/12/19 00:50:36;;;;;;;3.25;2.05;;;;;;;17.40;60.57;103750.34;4765541;29;20418;-82
2021/12/19 00:53:03;;;;;;;3.25;1.73;;;;;;;17.40;60.66;103747.72;4779532;29;20482;-82
2021/12/19 00:55:29;;;;;;;2.78;1.80;;;;;;;17.41;60.53;103748.59;4794269;29;20035;-81
2021/12/19 00:57:55;;;;;;;2.38;1.73;;;;;;;17.41;60.47;103753.81;4794892;29;20109;-81
2021/12/19 01:00:28;;;;;;;2.13;1.63;;;;;;;17.40;60.49;103747.72;4793564;29;20035;-80
2021/12/19 01:02:57;;;;;;;2.42;1.67;;;;;;;17.40;60.56;103741.66;4793222;29;20051;-81
2021/12/19 01:05:23;;;;;;;3.42;1.77;;;;;;;17.40;60.53;103742.53;4763893;29;20031;-82
2021/12/19 01:07:49;;;;;;;2.67;1.85;;;;;;;17.40;60.64;103739.03;4777803;29;20444;-81
2021/12/19 01:10:15;;;;;;;2.47;1.65;;;;;;;17.40;60.73;103732.09;4763127;29;20054;-81
2021/12/19 01:12:40;;;;;;;2.53;1.55;;;;;;;17.39;60.38;103743.34;4792580;29;20107;-81
2021/12/19 01:15:08;;;;;;;2.55;1.70;;;;;;;17.39;60.29;103730.31;4777812;29;20050;-80
2021/12/19 01:17:34;;;;;;;3.10;1.60;;;;;;;17.39;60.39;103722.50;4778033;29;20062;-82
2021/12/19 01:19:59;;;;;;;2.83;1.60;;;;;;;17.39;60.52;103727.72;4792280;29;20069;-82
2021/12/19 01:22:25;;;;;;;3.03;1.60;;;;;;;17.40;60.53;103720.81;4777661;29;20037;-81
2021/12/19 01:24:50;;;;;;;2.45;1.77;;;;;;;17.38;60.59;103725.97;4762870;29;20039;-82
2021/12/19 01:27:16;;;;;;;2.20;1.52;;;;;;;17.40;60.60;103726.03;4792435;29;20518;-82
2021/12/19 01:29:41;;;;;;;2.08;1.58;;;;;;;17.40;60.19;103726.03;4777522;29;20049;-83
2021/12/19 01:32:06;;;;;;;2.05;1.50;;;;;;;17.40;60.35;103723.41;4777419;29;20075;-83
2021/12/19 01:34:32;;;;;;;2.20;1.50;;;;;;;17.40;60.49;103718.22;4792632;29;20031;-81
2021/12/19 01:36:57;;;;;;;2.22;1.48;;;;;;;17.40;60.40;103713.00;4762681;29;20073;-82
2021/12/19 01:39:23;;;;;;;2.40;1.60;;;;;;;17.39;60.10;103713.81;4777596;29;20376;-79
2021/12/19 01:41:55;;;;;;;3.03;1.60;;;;;;;17.39;60.25;103719.03;4777488;29;20482;-81
2021/12/19 01:44:23;;;;;;;2.72;1.50;;;;;;;17.39;60.61;103716.44;4792181;29;20031;-81
2021/12/19 01:46:49;;;;;;;2.92;1.55;;;;;;;17.38;60.35;103715.53;4792251;29;20125;-82
2021/12/19 01:49:15;;;;;;;2.13;1.42;;;;;;;17.39;60.41;103719.91;4777141;29;20041;-82
2021/12/19 01:51:41;;;;;;;2.88;1.70;;;;;;;17.37;60.17;103716.34;4777356;29;20039;-84
2021/12/19 01:54:06;;;;;;;2.50;1.48;;;;;;;17.39;60.68;103714.69;4777277;29;20433;-80
2021/12/19 01:56:33;;;;;;;1.75;1.23;;;;;;;17.39;60.08;103719.03;4777012;29;20031;-80
2021/12/19 01:58:59;;;;;;;1.95;1.40;;;;;;;17.40;60.48;103718.22;4808235;29;20035;-80
2021/12/19 02:01:25;;;;;;;1.58;1.15;;;;;;;17.39;60.13;103708.63;4776976;29;20126;-82
2021/12/19 02:03:51;;;;;;;2.03;1.50;;;;;;;17.38;60.10;103710.34;4791991;29;20114;-80
2021/12/19 02:06:16;;;;;;;2.25;1.52;;;;;;;17.40;60.40;103707.81;4776889;29;20046;-82
2021/12/19 02:08:42;;;;;;;2.58;1.58;;;;;;;17.39;60.17;103700.81;4791710;29;20031;-79
2021/12/19 02:11:08;;;;;;;2.97;1.50;;;;;;;17.39;60.17;103696.47;4762028;29;20083;-83
2021/12/19 02:13:34;;;;;;;2.65;1.52;;;;;;;17.39;60.30;103704.28;4776608;29;20034;-82
2021/12/19 02:15:59;;;;;;;1.50;1.20;;;;;;;17.39;60.18;103700.81;4776629;29;20068;-83
2021/12/19 02:18:26;;;;;;;2.28;1.52;;;;;;;17.38;60.03;103694.72;4776353;29;20042;-83
2021/12/19 02:20:55;;;;;;;2.22;1.30;;;;;;;17.39;60.02;103699.09;4776454;29;20035;-81
2021/12/19 02:23:24;;;;;;;1.75;1.20;;;;;;;17.38;60.08;103691.25;4807397;29;20058;-83
2021/12/19 02:25:50;;;;;;;2.45;1.38;;;;;;;17.39;60.12;103690.41;4791148;29;20063;-82
2021/12/19 02:28:17;;;;;;;2.28;1.33;;;;;;;17.39;60.23;103686.06;4776322;29;20035;-81
2021/12/19 02:30:42;;;;;;;1.83;1.30;;;;;;;17.39;60.22;103686.06;4790240;29;20087;-81
2021/12/19 02:33:12;;;;;;;1.30;1.10;;;;;;;17.38;60.17;103679.09;4791167;29;20494;-82
2021/12/19 02:35:40;;;;;;;1.60;1.20;;;;;;;17.40;59.93;103674.84;4791046;29;20026;-83
2021/12/19 02:48:47;;;;;;;;;;;;;;;17.40;59.96;103650.53;4807890;29;20092;-80
2021/12/19 02:51:12;;;;;;;1.63;1.30;;;;;;;17.39;59.93;103641.81;4775987;29;19917;-80
2021/12/19 02:53:40;;;;;;;2.45;1.20;;;;;;;17.40;60.03;103641.00;4790728;29;20034;-82
2021/12/19 02:56:08;;;;;;;1.58;1.00;;;;;;;17.40;60.06;103637.50;4790870;29;20402;-81
2021/12/19 02:58:34;;;;;;;1.30;0.90;;;;;;;17.40;60.04;103638.41;4776026;29;20034;-79
2021/12/19 03:01:17;;;;;;;1.45;1.10;;;;;;;17.39;59.85;103636.59;4775892;29;20042;-81
2021/12/19 03:03:43;;;;;;;1.70;1.10;;;;;;;17.39;60.05;103644.41;4790635;29;20125;-81
2021/12/19 03:06:08;;;;;;;1.65;1.10;;;;;;;17.39;60.18;103634.00;4776066;29;20196;-81
2021/12/19 03:08:34;;;;;;;2.10;1.10;;;;;;;17.39;59.83;103638.34;4775719;29;20041;-81
2021/12/19 03:11:17;;;;;;;2.78;1.05;;;;;;;17.40;59.78;103640.13;4790426;29;20027;-82
2021/12/19 03:19:10;;;;;;;1.98;1.15;;;;;;;17.41;59.83;103623.66;4807114;29;19920;-81
2021/12/19 03:21:36;;;;;;;1.35;1.00;;;;;;;17.40;59.80;103625.38;4775404;29;20035;-80
2021/12/19 03:24:02;;;;;;;2.13;1.17;;;;;;;17.40;59.76;103622.78;4790069;29;20039;-82
2021/12/19 03:26:27;;;;;;;1.42;1.10;;;;;;;17.40;59.78;103621.91;4790038;29;20078;-82
2021/12/19 03:28:53;;;;;;;1.90;1.00;;;;;;;17.40;59.61;103611.47;4775341;29;20042;-82
2021/12/19 03:31:18;;;;;;;1.42;1.05;;;;;;;17.40;59.64;103604.56;4775438;29;20034;-81
2021/12/19 03:33:43;;;;;;;2.05;1.15;;;;;;;17.39;59.59;103613.19;4790457;29;20083;-80
2021/12/19 03:36:09;;;;;;;1.02;0.90;;;;;;;17.41;59.76;103608.91;4760369;29;20038;-81
2021/12/19 03:38:39;;;;;;;1.20;1.00;;;;;;;17.41;59.69;103608.03;4775090;29;20471;-81
2021/12/19 03:41:14;;;;;;;1.50;1.08;;;;;;;17.41;59.72;103605.44;4805894;29;20368;-83
2021/12/19 03:43:40;;;;;;;1.40;1.13;;;;;;;17.40;59.69;103598.47;4790093;29;20033;-82
2021/12/19 03:46:05;;;;;;;1.48;1.10;;;;;;;17.40;59.49;103594.13;4775273;29;20050;-81
2021/12/19 03:48:31;;;;;;;1.60;1.17;;;;;;;17.39;59.54;103597.56;4790317;29;20505;-80
2021/12/19 03:50:56;;;;;;;1.58;0.98;;;;;;;17.39;59.58;103576.72;4775283;29;20097;-82
2021/12/19 03:53:22;;;;;;;1.20;0.80;;;;;;;17.41;59.61;103590.69;4790185;29;20062;-81
2021/12/19 03:55:48;;;;;;;1.27;0.90;;;;;;;17.40;59.21;103583.72;4790393;29;20379;-82
2021/12/19 03:58:14;;;;;;;1.98;1.10;;;;;;;17.40;59.55;103573.31;4789830;29;20058;-81
2021/12/19 04:00:42;;;;;;;1.80;1.10;;;;;;;17.41;59.67;103580.28;4775317;29;20469;-82
2021/12/19 04:03:10;;;;;;;1.10;0.90;;;;;;;17.41;59.47;103584.59;4760783;29;20035;-83
2021/12/19 04:05:38;;;;;;;1.20;0.80;;;;;;;17.42;59.35;103581.16;4775189;29;20027;-82
2021/12/19 04:08:04;;;;;;;0.90;0.80;;;;;;;17.42;59.59;103569.06;4775258;29;20042;-83
2021/12/19 04:10:30;;;;;;;1.00;0.85;;;;;;;17.44;59.28;103569.09;4760906;29;20103;-83
2021/12/19 04:12:56;;;;;;;1.23;1.02;;;;;;;17.44;59.00;103558.66;4789865;29;20031;-81
2021/12/19 04:15:22;;;;;;;1.20;0.80;;;;;;;17.47;59.24;103569.22;4790063;29;20058;-81
2021/12/19 04:17:47;;;;;;;1.50;0.82;;;;;;;17.50;59.22;103558.88;4790109;29;20482;-82
2021/12/19 04:20:15;;;;;;;4.43;0.73;;;;;;;17.52;58.94;103554.63;4775314;29;20039;-83
2021/12/19 04:22:41;;;;;;;3.22;0.80;;;;;;;17.54;58.81;103552.06;4775134;29;20041;-81
2021/12/19 04:25:07;;;;;;;2.65;0.98;;;;;;;17.53;58.83;103546.00;4774991;29;20410;-81
2021/12/19 04:27:34;;;;;;;2.22;0.75;;;;;;;17.54;58.72;103546.88;4760066;29;20051;-82
2021/12/19 04:29:59;;;;;;;1.08;0.70;;;;;;;17.56;58.59;103540.00;4775022;29;20043;-83
2021/12/19 04:32:30;;;;;;;1.65;1.00;;;;;;;17.57;58.85;103536.53;4805981;29;20041;-82
2021/12/19 04:34:57;;;;;;;0.80;0.80;;;;;;;17.58;58.89;103533.13;4790879;29;20035;-82
2021/12/19 04:38:02;;;;;;;1.90;0.80;;;;;;;17.58;58.83;103535.72;4789677;29;20539;-81
2021/12/19 04:40:29;;;;;;;1.60;0.80;;;;;;;17.59;58.82;103527.94;4793362;29;20459;-82
2021/12/19 04:51:47;;;;;;;;;;;;;;;17.58;58.82;103539.22;4806700;29;20451;-83
2021/12/19 05:14:37;;;;;;;0.85;0.65;;;;;;;17.52;59.32;103552.00;4809073;29;20502;-82
2021/12/19 05:17:07;;;;;;;0.63;0.50;;;;;;;17.52;59.46;103544.19;4763724;29;20383;-83
2021/12/19 05:19:50;;;;;;;1.25;0.70;;;;;;;17.52;59.22;103543.31;4778169;29;20038;-83
2021/12/19 05:22:18;;;;;;;0.98;0.65;;;;;;;17.51;59.19;103537.25;4792426;29;20034;-82
2021/12/19 05:25:00;;;;;;;1.30;0.82;;;;;;;17.53;59.18;103534.66;4777730;29;20039;-83
2021/12/19 05:27:26;;;;;;;0.88;0.57;;;;;;;17.54;59.33;103528.63;4766685;29;20066;-82
2021/12/19 05:29:52;;;;;;;1.58;0.60;;;;;;;17.56;58.93;103526.97;4777363;29;20352;-82
2021/12/19 05:32:17;;;;;;;2.00;0.60;;;;;;;17.57;58.83;103526.13;4792087;29;20034;-81
2021/12/19 05:34:43;;;;;;;0.75;0.63;;;;;;;17.58;58.52;103525.31;4792185;29;20023;-81
2021/12/19 05:45:20;;;;;;;0.93;0.60;;;;;;;17.62;58.48;103522.84;4808423;29;20041;-82
2021/12/19 05:47:48;;;;;;;1.05;0.60;;;;;;;17.62;58.53;103521.97;4777042;29;20030;-81
2021/12/19 05:50:19;;;;;;;1.60;0.60;;;;;;;17.61;58.77;103518.47;4791775;29;20034;-82
2021/12/19 05:52:47;;;;;;;1.10;0.65;;;;;;;17.60;58.59;103510.63;4777442;29;20531;-82
2021/12/19 05:55:13;;;;;;;1.05;0.60;;;;;;;17.59;58.57;103514.03;4792095;29;20046;-82
2021/12/19 05:57:38;;;;;;;0.77;0.57;;;;;;;17.59;58.80;103517.53;4776949;29;20034;-83
2021/12/19 06:00:07;;;;;;;1.00;0.60;;;;;;;17.58;58.69;103514.91;4808016;29;20088;-83
2021/12/19 06:02:32;;;;;;;0.90;0.60;;;;;;;17.57;58.96;103515.72;4791765;29;20045;-81
2021/12/19 06:04:58;;;;;;;1.05;0.75;;;;;;;17.57;58.62;103527.03;4791603;29;20039;-81
2021/12/19 06:07:23;;;;;;;2.17;0.60;;;;;;;17.57;58.62;103520.91;4776734;29;20030;-82
2021/12/19 06:09:48;;;;;;;0.57;0.45;;;;;;;17.56;58.98;103511.34;4791649;29;20035;-81
2021/12/19 06:12:14;;;;;;;1.45;0.70;;;;;;;17.56;58.98;103511.34;4791554;29;20100;-81
2021/12/19 06:14:39;;;;;;;1.02;0.60;;;;;;;17.56;58.79;103506.16;4807771;29;20486;-81
2021/12/19 06:17:05;;;;;;;2.05;0.70;;;;;;;17.56;58.85;103508.75;4791630;29;20478;-82
2021/12/19 06:19:36;;;;;;;1.67;0.65;;;;;;;17.56;58.77;103500.94;4761769;29;20087;-82
2021/12/19 06:22:03;;;;;;;0.80;0.50;;;;;;;17.54;58.73;103494.78;4791321;29;20030;-83
2021/12/19 06:24:28;;;;;;;0.80;0.50;;;;;;;17.53;58.78;103499.13;4791382;29;20038;-83
2021/12/19 06:26:53;;;;;;;1.75;0.75;;;;;;;17.53;59.01;103487.81;4791291;29;20402;-82
2021/12/19 06:29:19;;;;;;;2.58;0.70;;;;;;;17.54;59.13;103492.19;4776282;29;20077;-81
2021/12/19 06:31:44;;;;;;;2.83;0.70;;;;;;;17.53;59.02;103493.91;4791370;29;20050;-82
2021/12/19 06:34:09;;;;;;;1.38;0.80;;;;;;;17.56;58.70;103495.72;4761718;29;20031;-82
2021/12/19 06:36:36;;;;;;;1.70;0.80;;;;;;;17.58;58.40;103489.72;4776315;29;20034;-81
2021/12/19 06:39:02;;;;;;;1.77;0.90;;;;;;;17.61;58.40;103496.75;4776400;29;20041;-80
2021/12/19 06:41:28;;;;;;;1.52;0.73;;;;;;;17.60;58.79;103488.06;4761656;29;20039;-81
2021/12/19 06:43:53;;;;;;;1.70;0.70;;;;;;;17.62;58.37;103482.91;4791031;29;20038;-82
2021/12/19 06:46:19;;;;;;;1.38;0.75;;;;;;;17.63;58.30;103477.72;4791240;29;20042;-80
2021/12/19 06:48:44;;;;;;;1.50;0.55;;;;;;;17.65;58.22;103483.88;4790937;29;20117;-80
2021/12/19 06:51:10;;;;;;;1.38;0.60;;;;;;;17.68;58.01;103490.91;4790866;29;20109;-82
2021/12/19 06:53:35;;;;;;;1.45;0.70;;;;;;;17.74;57.98;103485.03;4761160;29;20034;-80
2021/12/19 06:56:00;;;;;;;4.32;0.63;;;;;;;17.77;57.88;103478.19;4776038;29;20038;-80
2021/12/19 06:58:26;;;;;;;4.40;0.70;;;;;;;17.82;57.59;103479.25;4776118;29;20486;-83
2021/12/19 07:00:51;;;;;;;1.00;0.60;;;;;;;17.82;57.86;103479.25;4761149;29;20058;-82
2021/12/19 07:03:22;;;;;;;1.88;0.70;;;;;;;17.85;57.80;103475.84;4807094;29;20562;-80
2021/12/19 07:05:48;;;;;;;1.80;0.60;;;;;;;17.86;57.77;103475.91;4790677;29;20039;-81
2021/12/19 07:08:14;;;;;;;1.17;0.68;;;;;;;17.87;57.45;103474.19;4775747;29;20045;-81
2021/12/19 07:10:39;;;;;;;1.95;0.63;;;;;;;17.92;57.78;103476.94;4775934;29;20479;-81
2021/12/19 07:13:04;;;;;;;0.75;0.50;;;;;;;17.93;57.53;103481.31;4790814;29;20041;-81
2021/12/19 07:15:30;;;;;;;1.00;0.57;;;;;;;17.93;57.66;103470.91;4790682;29;20092;-82
2021/12/19 07:17:58;;;;;;;1.30;0.50;;;;;;;17.93;57.41;103473.50;4806519;29;20030;-83
2021/12/19 07:20:23;;;;;;;1.25;0.60;;;;;;;17.94;57.34;103472.66;4790495;29;20042;-83
2021/12/19 07:22:48;;;;;;;1.95;0.77;;;;;;;17.94;57.32;103477.84;4775565;29;20038;-83
2021/12/19 07:25:14;;;;;;;1.13;0.57;;;;;;;17.95;57.63;103470.09;4760650;29;20027;-81
2021/12/19 07:27:39;;;;;;;1.00;0.60;;;;;;;17.98;57.41;103474.50;4775492;29;20062;-83
2021/12/19 07:30:06;;;;;;;1.15;0.70;;;;;;;17.98;57.35;103471.91;4790412;29;20042;-84
2021/12/19 07:32:32;;;;;;;1.42;0.60;;;;;;;17.97;57.41;103465.81;4806658;29;20030;-82
2021/12/19 07:34:57;;;;;;;0.52;0.40;;;;;;;17.98;57.22;103467.56;4775547;29;20030;-83
2021/12/19 07:37:23;;;;;;;1.75;0.60;;;;;;;17.99;57.26;103460.66;4790613;29;20065;-83
2021/12/19 07:39:57;;;;;;;1.40;0.60;;;;;;;17.98;57.38;103458.88;4776860;29;20403;-82
2021/12/19 07:42:22;;;;;;;1.35;0.60;;;;;;;17.94;57.68;103457.88;4791481;29;20031;-83
2021/12/19 07:44:47;;;;;;;2.97;0.70;;;;;;;17.90;57.51;103456.06;4807546;29;20363;-82
2021/12/19 07:47:14;;;;;;;3.63;0.70;;;;;;;17.67;57.68;103463.09;4791326;29;20035;-77
2021/12/19 07:49:42;;;;;;;4.20;0.60;;;;;;;17.71;57.73;103456.28;4806438;29;20034;-81
2021/12/19 07:52:07;;;;;;;1.92;0.70;;;;;;;17.77;57.15;103462.56;4790622;29;20041;-82
2021/12/19 07:54:33;;;;;;;5.57;0.60;;;;;;;17.80;57.35;103460.03;4806582;29;20035;-83
2021/12/19 07:56:58;;;;;;;1.92;0.70;;;;;;;17.84;57.74;103463.69;4775397;29;20121;-83
2021/12/19 07:59:24;;;;;;;5.43;0.65;;;;;;;17.86;57.59;103462.00;4775664;29;20026;-83
2021/12/19 08:01:49;;;;;;;3.17;0.52;;;;;;;17.87;57.47;103450.72;4790370;29;20042;-83
2021/12/19 08:04:15;;;;;;;1.38;0.68;;;;;;;17.88;57.51;103457.72;4790142;29;20034;-83
2021/12/19 08:06:41;;;;;;;1.73;0.65;;;;;;;17.89;57.61;103452.53;4775338;29;20035;-83
2021/12/19 08:09:09;;;;;;;1.60;0.60;;;;;;;17.92;57.57;103448.28;4789856;29;20509;-84
2021/12/19 08:11:42;;;;;;;2.75;0.65;;;;;;;17.93;57.70;103447.44;4761044;29;20445;-83
2021/12/19 08:14:15;;;;;;;2.63;0.80;;;;;;;17.94;57.87;103444.00;4776119;29;20034;-82
2021/12/19 08:16:42;;;;;;;1.00;0.70;;;;;;;17.93;57.34;103444.84;4789923;29;20398;-82
2021/12/19 08:19:08;;;;;;;0.88;0.50;;;;;;;17.94;57.64;103450.06;4789967;29;20122;-83
2021/12/19 08:21:34;;;;;;;0.90;0.47;;;;;;;17.95;57.37;103449.25;4775196;29;20107;-84
2021/12/19 08:24:08;;;;;;;1.25;0.60;;;;;;;17.96;57.68;103444.91;4775164;29;20042;-84
2021/12/19 08:26:34;;;;;;;1.33;0.65;;;;;;;17.95;57.63;103437.97;4776331;29;20506;-84
2021/12/19 08:28:59;;;;;;;2.03;0.50;;;;;;;17.96;57.54;103439.72;4761912;29;20045;-83
2021/12/19 08:31:25;;;;;;;1.38;0.55;;;;;;;17.97;57.62;103444.09;4763621;29;20038;-83
2021/12/19 08:33:50;;;;;;;0.88;0.60;;;;;;;17.96;57.75;103440.59;4763708;29;20049;-82
2021/12/19 08:36:16;;;;;;;1.75;0.70;;;;;;;17.96;57.52;103437.09;4778548;29;20091;-84
2021/12/19 08:38:42;;;;;;;1.40;0.70;;;;;;;17.98;57.59;103443.25;4793337;29;20037;-83
2021/12/19 08:41:07;;;;;;;0.82;0.50;;;;;;;17.99;57.58;103434.63;4778374;29;20035;-83
2021/12/19 08:43:33;;;;;;;0.73;0.50;;;;;;;17.99;57.58;103434.63;4793712;29;20095;-82
2021/12/19 08:45:58;;;;;;;0.90;0.50;;;;;;;17.99;57.48;103424.19;4763201;29;20031;-83
2021/12/19 08:48:24;;;;;;;0.98;0.52;;;;;;;17.99;57.44;103430.28;4793286;29;20108;-83
2021/12/19 08:50:51;;;;;;;1.60;0.60;;;;;;;18.01;57.46;103430.34;4794101;29;20233;-83
2021/12/19 08:53:17;;;;;;;4.28;0.60;;;;;;;18.03;57.50;103423.41;4778713;29;20045;-79
2021/12/19 08:55:43;;;;;;;3.40;0.50;;;;;;;18.03;57.42;103426.94;4792917;29;20027;-79
2021/12/19 08:58:08;;;;;;;4.32;0.75;;;;;;;18.06;57.47;103431.34;4792934;29;20436;-83
2021/12/19 09:00:34;;;;;;;3.58;0.70;;;;;;;18.06;57.68;103427.00;4777837;29;20031;-85
2021/12/19 09:03:00;;;;;;;3.88;0.70;;;;;;;18.06;57.52;103418.31;4762933;29;20035;-83
2021/12/19 09:05:28;;;;;;;1.85;0.60;;;;;;;18.06;57.58;103424.41;4793243;29;20027;-80
2021/12/19 09:07:54;;;;;;;1.27;0.60;;;;;;;18.07;57.52;103423.59;4777974;29;20121;-79
2021/12/19 09:10:21;;;;;;;1.10;0.70;;;;;;;18.08;57.33;103417.50;4792492;29;20084;-81
2021/12/19 09:12:47;;;;;;;1.50;0.77;;;;;;;18.08;57.56;103416.63;4793100;29;20035;-81
2021/12/19 09:15:13;;;;;;;2.90;0.50;;;;;;;18.09;57.54;103421.00;4792615;29;20031;-82
2021/12/19 09:17:39;;;;;;;1.55;0.60;;;;;;;18.07;57.43;103415.75;4808784;29;20090;-82
2021/12/19 09:20:06;;;;;;;2.25;0.60;;;;;;;18.08;57.68;103422.72;4792415;29;20023;-84
2021/12/19 09:22:32;;;;;;;0.95;0.60;;;;;;;18.11;57.39;103421.94;4792642;29;20027;-85
2021/12/19 09:24:58;;;;;;;1.00;0.60;;;;;;;18.09;57.36;103423.59;4808651;29;20360;-80
2021/12/19 09:27:23;;;;;;;2.58;0.73;;;;;;;18.12;57.49;103426.31;4777499;29;20054;-85
2021/12/19 09:29:48;;;;;;;3.88;0.80;;;;;;;18.17;57.19;103422.13;4762955;29;20121;-85
2021/12/19 09:32:14;;;;;;;10.40;3.42;;;;;;;18.18;57.36;103425.59;4792946;29;20386;-86
2021/12/19 09:34:39;;;;;;;8.70;2.40;;;;;;;18.14;57.51;103422.03;4792229;29;20042;-84
2021/12/19 09:37:05;;;;;;;9.98;2.22;;;;;;;18.08;57.67;103417.50;4763002;29;20026;-83
2021/12/19 09:39:32;;;;;;;10.82;2.10;;;;;;;18.03;57.76;103415.59;4776962;29;20134;-76
2021/12/19 09:42:01;;;;;;;6.95;1.70;;;;;;;17.97;57.84;103416.31;4792110;29;20034;-82
2021/12/19 09:44:28;;;;;;;8.30;1.98;;;;;;;17.94;58.04;103415.34;4777502;29;20118;-82
2021/12/19 09:46:53;;;;;;;7.60;1.77;;;;;;;17.92;58.15;103419.59;4792164;29;20080;-82
2021/12/19 09:49:20;;;;;;;3.90;1.55;;;;;;;17.90;58.07;103422.19;4792511;29;20490;-83
2021/12/19 09:51:48;;;;;;;7.80;1.40;;;;;;;17.94;57.99;103423.16;4792218;29;20031;-82
2021/12/19 09:54:14;;;;;;;5.32;1.55;;;;;;;17.97;57.92;103425.88;4792152;29;20031;-82
2021/12/19 09:56:41;;;;;;;6.30;1.52;;;;;;;17.98;57.91;103418.06;4792398;29;20478;-83
2021/12/19 09:59:10;;;;;;;9.52;1.80;;;;;;;17.98;58.04;103409.38;4777464;29;20462;-81
2021/12/19 10:01:35;;;;;;;4.22;1.60;;;;;;;17.99;57.50;103418.97;4808441;29;20030;-82
2021/12/19 10:04:01;;;;;;;4.88;1.42;;;;;;;17.98;57.52;103411.97;4761943;29;20038;-82
2021/12/19 10:06:28;;;;;;;4.10;1.38;;;;;;;17.99;57.48;103417.25;4791819;29;20505;-83
2021/12/19 10:09:08;;;;;;;2.58;1.20;;;;;;;18.00;57.39;103420.72;4791615;29;20023;-84
2021/12/19 10:14:34;;;;;;;3.25;1.13;;;;;;;18.01;57.45;103406.88;4807783;29;20459;-83
2021/12/19 10:17:05;;;;;;;5.63;1.30;;;;;;;18.01;57.38;103412.09;4807757;29;20118;-84
2021/12/19 10:19:50;;;;;;;4.65;1.40;;;;;;;18.03;57.33;103406.09;4791476;29;20034;-84
2021/12/19 10:22:30;;;;;;;4.38;1.40;;;;;;;18.04;57.37;103402.63;4792107;29;20031;-86
2021/12/19 10:25:11;;;;;;;5.95;1.52;;;;;;;18.05;57.51;103407.00;4791421;29;20023;-84
2021/12/19 10:27:42;;;;;;;6.45;1.70;;;;;;;18.02;57.38;103396.47;4792080;29;20078;-84
2021/12/19 10:30:16;;;;;;;4.43;1.50;;;;;;;18.03;57.53;103392.16;4808223;29;20070;-84
2021/12/19 10:32:56;;;;;;;3.08;1.25;;;;;;;18.06;57.20;103392.25;4796927;29;20046;-85
2021/12/19 10:35:27;;;;;;;6.50;1.60;;;;;;;18.05;58.52;103385.25;4803108;29;20113;-80
2021/12/19 10:37:52;;;;;;;3.50;1.60;;;;;;;18.08;60.32;103395.78;4799786;29;20087;-86
2021/12/19 10:40:18;;;;;;;7.90;2.10;;;;;;;18.06;61.84;103397.47;4777575;29;20425;-83
2021/12/19 10:42:54;;;;;;;4.60;2.03;;;;;;;18.06;62.84;103384.44;4777083;29;20062;-85
2021/12/19 10:45:32;;;;;;;6.47;2.00;;;;;;;18.03;63.50;103386.94;4791485;29;20031;-85
2021/12/19 10:48:25;;;;;;;4.20;1.65;;;;;;;17.94;63.29;103386.69;4776819;29;20154;-86
2021/12/19 10:51:05;;;;;;;6.10;2.20;;;;;;;17.89;63.40;103382.22;4791115;29;20124;-85
2021/12/19 10:53:38;;;;;;;8.48;2.10;;;;;;;17.83;63.76;103384.66;4791397;29;20088;-86
2021/12/19 10:56:08;;;;;;;6.00;2.40;;;;;;;17.78;64.34;103377.50;4807451;29;20027;-86
2021/12/19 10:58:37;;;;;;;6.20;3.00;;;;;;;17.75;64.23;103375.69;4791279;29;20435;-86
2021/12/19 11:01:13;;;;;;;8.20;2.20;;;;;;;17.73;64.83;103381.69;4791234;29;20077;-86
2021/12/19 11:03:48;;;;;;;4.63;2.10;;;;;;;17.69;64.49;103376.38;4790869;29;20038;-84
2021/12/19 11:06:25;;;;;;;7.90;2.60;;;;;;;17.66;65.17;103365.88;4791117;29;20034;-86
2021/12/19 11:08:55;;;;;;;5.53;2.05;;;;;;;17.64;65.58;103364.06;4791919;29;20027;-85
2021/12/19 11:11:30;;;;;;;4.18;2.40;;;;;;;17.63;65.55;103362.28;4792527;29;20050;-86
2021/12/19 11:13:56;;;;;;;7.50;2.10;;;;;;;17.61;65.54;103357.03;4791690;29;20090;-86
2021/12/19 11:16:22;;;;;;;6.20;2.00;;;;;;;17.60;65.65;103362.22;4776306;29;20030;-86
2021/12/19 11:18:48;;;;;;;6.68;2.10;;;;;;;17.59;65.71;103348.28;4790952;29;20035;-86
2021/12/19 11:21:14;;;;;;;4.05;1.83;;;;;;;17.60;66.07;103347.47;4776329;29;20092;-86
2021/12/19 11:23:40;;;;;;;3.70;1.70;;;;;;;17.60;65.78;103343.97;4776049;29;20421;-86
2021/12/19 11:26:05;;;;;;;4.25;1.90;;;;;;;17.60;65.66;103342.25;4790847;29;20110;-85
2021/12/19 11:28:31;;;;;;;5.57;2.05;;;;;;;17.60;64.86;103338.78;4791480;29;20039;-87
2021/12/19 11:30:57;;;;;;;5.68;2.10;;;;;;;17.59;65.68;103337.00;4775969;29;20497;-79
2021/12/19 11:33:51;;;;;;;4.82;2.10;;;;;;;17.60;65.36;103331.84;4790780;29;20045;-84
2021/12/19 11:36:18;;;;;;;6.05;1.80;;;;;;;17.61;65.80;103327.50;4790593;29;20038;-83
2021/12/19 11:38:45;;;;;;;4.18;1.85;;;;;;;17.59;65.87;103327.44;4790796;29;20050;-86
2021/12/19 11:41:10;;;;;;;5.03;2.08;;;;;;;17.61;65.72;103330.97;4776154;29;20061;-84
2021/12/19 11:43:38;;;;;;;4.72;2.17;;;;;;;17.62;65.40;103327.56;4776189;29;20546;-85
2021/12/19 11:46:18;;;;;;;4.03;1.92;;;;;;;17.62;65.51;103317.16;4791116;29;20023;-87
2021/12/19 11:48:44;;;;;;;5.30;1.80;;;;;;;17.63;65.49;103318.91;4791551;29;20050;-85
2021/12/19 11:51:30;;;;;;;4.60;1.80;;;;;;;17.65;65.12;103314.63;4776985;29;20121;-87
2021/12/19 11:54:12;;;;;;;4.53;1.88;;;;;;;17.65;65.12;103311.13;4790976;29;20043;-85
2021/12/19 11:56:37;;;;;;;5.45;1.88;;;;;;;17.65;64.58;103306.81;4806875;29;20030;-86
2021/12/19 11:59:17;;;;;;;2.55;1.67;;;;;;;17.66;64.46;103295.56;4775954;29;20031;-85
2021/12/19 12:01:43;;;;;;;2.88;1.70;;;;;;;17.66;65.56;103289.47;4776888;29;20080;-85
2021/12/19 12:04:14;;;;;;;3.85;1.77;;;;;;;17.67;64.50;103288.63;4778798;29;20062;-85
2021/12/19 12:07:03;;;;;;;3.83;1.60;;;;;;;17.68;64.42;103298.19;4794046;29;20121;-83
2021/12/19 12:09:38;;;;;;;3.95;1.63;;;;;;;17.67;65.22;103289.50;4793837;29;20042;-86
2021/12/19 12:12:09;;;;;;;4.10;1.55;;;;;;;17.67;65.27;103286.91;4780750;29;20038;-85
2021/12/19 12:14:42;;;;;;;3.63;1.70;;;;;;;17.68;65.00;103282.56;4794033;29;20176;-85
2021/12/19 12:17:12;;;;;;;3.83;1.80;;;;;;;17.68;65.96;103285.19;4810023;29;20078;-86
2021/12/19 12:19:47;;;;;;;4.72;1.90;;;;;;;17.69;64.94;103279.16;4810135;29;20063;-86
2021/12/19 12:22:25;;;;;;;4.07;1.60;;;;;;;17.70;64.52;103273.09;4810204;29;20485;-85
2021/12/19 12:25:09;;;;;;;3.47;1.40;;;;;;;17.69;64.87;103272.22;4793594;29;20093;-83
2021/12/19 12:27:37;;;;;;;2.65;1.75;;;;;;;17.71;64.62;103266.19;4793629;29;20107;-86
2021/12/19 12:30:05;;;;;;;3.33;1.77;;;;;;;17.71;64.57;103260.97;4778922;29;20043;-81
2021/12/19 12:32:31;;;;;;;4.82;1.90;;;;;;;17.72;64.62;103270.53;4793811;29;20038;-86
2021/12/19 12:34:57;;;;;;;3.92;1.73;;;;;;;17.79;63.42;103262.94;4765078;29;20382;-80
2021/12/19 12:37:23;;;;;;;8.40;1.75;;;;;;;17.84;65.13;103260.50;4794765;29;20070;-82